KVOK/VOK METAR and TAF weather

Enter ICAO airport designator
Station Type Date Time Source
KVOK METAR 2019/04/25 09:56 UTC NOAA

KVOK 250956Z AUTO 15003KT 6SM HZ BKN100 10/06 A2976 RMK AO2 SLP081 T01020058


Station Type Date Time Source
KVOK Decoded METAR 2019/04/25 09:56 UTC NOAA

Volk / Camp Douglas, WI, United States (KVOK) 43-56N 090-16W
Apr 25, 2019 - 05:56 AM EDT / 2019.04.25 0956 UTC
Wind: from the SSE (150 degrees) at 3 MPH (3 KT):0
Visibility: 6 mile(s):0
Sky conditions: mostly cloudy
Weather: haze
Temperature: 50.4 F (10.2 C)
Dew Point: 42.4 F (5.8 C)
Relative Humidity: 74%
Pressure (altimeter): 29.76 in. Hg (1007 hPa)
ob: KVOK 250956Z AUTO 15003KT 6SM HZ BKN100 10/06 A2976 RMK AO2 SLP081 T01020058
cycle: 10

Station Type Date Time Source
KVOK TAF 2019/04/25 09:12 UTC NOAA

TAF KVOK 250900Z 2509/2615 VRB06KT 9999 FEW080 BKN100 QNH2975INS
BECMG 2520/2521 33009KT 8000 -DZ BKN015 OVC025 620804 QNH2982INS
BECMG 2523/2524 VRB06KT 6000 -RA FEW005 SCT010 BKN035 620604 QNH2984INS
BECMG 2601/2602 VRB06KT 4800 BR FEW040 SCT080 QNH2985INS
TEMPO 2602/2605 3200 BR
BECMG 2614/2615 32015G20KT 9999 NSW SKC 510013 QNH2990INS TX14/2517Z TN05/2509Z

Example: see airport list